Nearby METAR Reports

 

KDWH - Houston/Dw Hooks, Texas, USA
Distance from station: WNW 3mi, 6km
Updated: 10/16/2019 6:53pm
Few Clouds
Few Clouds
 Wind from N
Wind: N 5 mph , 7 km/h
Temperature: 64°F , 18°C
Dew Point: 54°F , 12°C
Humidity: 68%
Barometer: 30.02 inHg , 1016.6 hPa
Clouds: Few Clouds
Visibility: 10 miles , 16 km
Cloud details: Few Clouds 4800 ft
2019/10/16 23:53 KDWH 162353Z 01004KT 10SM FEW048 18/12 A3002 RMK AO2 SLP164 T01780122 10189 20178 56013
KIAH - Houston/Intnl, Texas, USA
Distance from station: ESE 9mi, 14km
Updated: 10/16/2019 6:53pm
Mostly cloudy
Mostly cloudy
 Wind from N
Wind: N 8 mph , 13 km/h
Temperature: 66°F , 19°C
Dew Point: 57°F , 14°C
Humidity: 73%
Barometer: 30.02 inHg , 1016.6 hPa
Clouds: Mostly cloudy
Visibility: 10 miles , 16 km
Cloud details: Partly cloudy 2700 ft
Mostly cloudy 4500 ft
Mostly cloudy 25000 ft
2019/10/16 23:53 KIAH 162353Z 36007KT 10SM SCT027 BKN045 BKN250 19/14 A3002 RMK AO2 SLP165 60000 T01940144 10200 20183 56012
 
KCXO - Conroe, Texas, USA
Distance from station: NNE 21mi, 34km
Updated: 10/16/2019 6:53pm
Clear
Clear
 Wind from calm
Wind: Calm
Temperature: 63°F , 17°C
Dew Point: 57°F , 14°C
Humidity: 83%
Barometer: 30.03 inHg , 1016.9 hPa
Clouds: Clear
Visibility: 10 miles , 16 km
2019/10/16 23:53 KCXO 162353Z 00000KT 10SM CLR 17/14 A3003 RMK AO2 SLP167 T01670144 10200 20167 56012
KMCJ - Houston/Univ, Texas, USA
Distance from station: SSE 24mi, 39km
Updated: 10/16/2019 7:15pm
Overcast
Overcast
 Wind from N
Wind: N 9 mph , 15 km/h
Temperature: 66°F , 19°C
Dew Point: 59°F , 15°C
Humidity: 78%
Barometer: 30.02 inHg , 1016.6 hPa
Clouds: Overcast
Visibility: 10 miles , 16 km
Cloud details: Mostly cloudy 2500 ft
Overcast 3100 ft
2019/10/17 00:15 KMCJ 170015Z AUTO 01008KT 10SM BKN025 OVC031 19/15 A3002 RMK A01
 
KTME - Houston Exec, Texas, USA
Distance from station: SW 30mi, 48km
Updated: 10/16/2019 7:35pm
Mostly cloudy
Mostly cloudy
 Wind from NNE
Wind: NNE 5 mph , 7 km/h
Temperature: 64°F , 18°C
Dew Point: 57°F , 14°C
Humidity: 78%
Barometer: 30.06 inHg , 1017.9 hPa
Clouds: Mostly cloudy
Visibility: 10 miles , 16 km
Cloud details: Mostly cloudy 2700 ft
2019/10/17 00:35 KTME 170035Z AUTO 03004KT 10SM BKN027 18/14 A3006 RMK AO2
KHOU - Houston/Hobby, Texas, USA
Distance from station: SSE 32mi, 51km
Updated: 10/16/2019 6:53pm
Overcast
Overcast
 Wind from N
Wind: N 10 mph , 17 km/h
Temperature: 68°F , 20°C
Dew Point: 57°F , 14°C
Humidity: 69%
Barometer: 30.01 inHg , 1016.3 hPa
Clouds: Overcast
Visibility: 10 miles , 16 km
Cloud details: Mostly cloudy 3000 ft
Overcast 3700 ft
2019/10/16 23:53 KHOU 162353Z 36009KT 10SM BKN030 OVC037 20/14 A3001 RMK AO2 SLP168 60000 T02000144 10200 20189 55003
 
KSGR - Houston/Sugar La, Texas, USA
Distance from station: SSW 32mi, 51km
Updated: 10/16/2019 6:53pm
Overcast
Overcast
 Wind from NNE
Wind: NNE 14 mph , 22 km/h
Temperature: 66°F , 19°C
Dew Point: 57°F , 14°C
Humidity: 73%
Barometer: 30.01 inHg , 1016.3 hPa
Clouds: Overcast
Visibility: 10 miles , 16 km
Cloud details: Overcast 4100 ft
2019/10/16 23:53 KSGR 162353Z 03012KT 10SM OVC041 19/14 A3001 RMK AO2 SLP164 T01940144 10194 20183 55007
K6R3 - Cleveland Muni, Texas, USA
Distance from station: NE 36mi, 58km
Updated: 10/16/2019 7:15pm
Clear
Clear
 Wind from NNE
Wind: NNE 3 mph , 6 km/h
Temperature: 63°F , 17°C
Dew Point: 63°F , 17°C
Humidity: 100%
Barometer: 30.05 inHg , 1017.6 hPa
Clouds: Clear
Visibility: 7 miles , 11 km
2019/10/17 00:15 K6R3 170015Z AUTO 02003KT 7SM CLR 17/17 A3005 RMK AO2 T01700167
 
KAXH - Houston/Southwst, Texas, USA
Distance from station: S 37mi, 60km
Updated: 10/16/2019 7:35pm
Overcast
Overcast
 Wind from N
Wind: N 5 mph , 7 km/h
Temperature: 64°F , 18°C
Dew Point: 61°F , 16°C
Humidity: 88%
Barometer: 30.04 inHg , 1017.3 hPa
Clouds: Overcast
Visibility: 10 miles , 16 km
Cloud details: Overcast 3200 ft
2019/10/17 00:35 KAXH 170035Z AUTO 36004KT 10SM OVC032 18/16 A3004 RMK AO2 T01830159
KEFD - Houston/Ellingto, Texas, USA
Distance from station: SSE 37mi, 60km
Updated: 10/16/2019 6:50pm
Overcast
Overcast
 Wind from NNE
Wind: NNE 7 mph , 11 km/h
Temperature: 66°F , 19°C
Dew Point: 55°F , 13°C
Humidity: 68%
Barometer: 30.00 inHg , 1015.9 hPa
Clouds: Overcast
Visibility: 7 miles , 11 km
Cloud details: Overcast 2000 ft
2019/10/16 23:50 KEFD 162350Z 02006KT 7SM OVC020 19/13 A3000
 
KLVJ - Houston, Texas, USA
Distance from station: SSE 40mi, 64km
Updated: 10/16/2019 7:25pm
Overcast
Overcast
 Wind from NNE
Wind: NNE 7 mph , 11 km/h
Temperature: 68°F , 20°C
Dew Point: 61°F , 16°C
Humidity: 78%
Barometer: 30.04 inHg , 1017.3 hPa
Clouds: Overcast
Visibility: 10 miles , 16 km
Cloud details: Overcast 3000 ft
2019/10/17 00:25 KLVJ 170025Z AUTO 02006KT 10SM OVC030 20/16 A3004 RMK AO2 T02000161
KUTS - Huntsville, Texas, USA
Distance from station: N 48mi, 78km
Updated: 10/16/2019 6:53pm
Clear
Clear
 Wind from calm
Wind: Calm
Temperature: 64°F , 18°C
Dew Point: 52°F , 11°C
Humidity: 64%
Barometer: 30.05 inHg , 1017.6 hPa
Clouds: Clear
Visibility: 10 miles , 16 km
2019/10/16 23:53 KUTS 162353Z AUTO 00000KT 10SM CLR 18/11 A3005 RMK AO2 SLP172 60000 T01780106 10206 20172 55013